Time;durP1;ratioP1;P1;durP2;ratioP2;P2;SDS_P1;SDS_P2;PMS_P1;PMS_P2;Temp;Humidity;BMP_temperature;BMP_pressure;BME280_temperature;BME280_humidity;BME280_pressure;Samples;Min_cycle;Max_cycle;Signal;HPM_P1;HPM_P2
2023/02/23 05:02:19;;;;;;;16.08;5.85;;;7.40;99.90;;;;;;5120952;23;20232;-69
2023/02/23 05:04:46;;;;;;;7.75;3.95;;;7.40;99.90;;;;;;4987596;28;20223;-67
2023/02/23 05:07:13;;;;;;;6.88;6.25;;;7.40;99.90;;;;;;4990275;28;20552;-68
2023/02/23 05:09:40;;;;;;;13.48;4.88;;;7.40;99.90;;;;;;4988784;28;20639;-69
2023/02/23 05:12:06;;;;;;;11.20;7.70;;;7.40;99.90;;;;;;4991543;28;20239;-69
2023/02/23 05:14:33;;;;;;;13.40;7.75;;;7.40;99.90;;;;;;4990765;28;20242;-69
2023/02/23 05:17:00;;;;;;;9.15;5.70;;;7.40;99.90;;;;;;4993037;28;20830;-69
2023/02/23 05:19:28;;;;;;;10.30;4.82;;;7.40;99.90;;;;;;4983866;28;20212;-69
2023/02/23 05:21:55;;;;;;;14.68;4.85;;;7.40;99.90;;;;;;4978567;28;20224;-69
2023/02/23 05:24:21;;;;;;;15.93;5.57;;;7.30;99.90;;;;;;4983779;28;20200;-69
2023/02/23 05:26:48;;;;;;;14.10;5.80;;;7.40;99.90;;;;;;4985371;28;20227;-68
2023/02/23 05:29:15;;;;;;;7.63;5.03;;;7.30;99.90;;;;;;4992243;28;20204;-68
2023/02/23 05:31:42;;;;;;;7.32;5.60;;;7.30;99.90;;;;;;4993930;28;20235;-69
2023/02/23 05:34:09;;;;;;;9.02;5.22;;;7.30;99.90;;;;;;4993646;28;20842;-69
2023/02/23 05:36:37;;;;;;;10.95;5.85;;;7.40;99.90;;;;;;4993053;28;20282;-69
2023/02/23 05:39:04;;;;;;;11.20;6.45;;;7.40;99.90;;;;;;4990840;28;20204;-69
2023/02/23 05:41:31;;;;;;;8.07;6.40;;;7.40;99.90;;;;;;4988220;28;20267;-70
2023/02/23 05:43:57;;;;;;;13.77;7.18;;;7.40;99.90;;;;;;4993776;28;20211;-70
2023/02/23 05:46:25;;;;;;;12.88;6.80;;;7.30;99.90;;;;;;4985889;28;20231;-69
2023/02/23 05:48:56;;;;;;;10.00;5.20;;;7.40;99.90;;;;;;4994453;28;20207;-69
2023/02/23 05:51:23;;;;;;;10.05;9.02;;;7.40;99.90;;;;;;4991345;28;20239;-69
2023/02/23 05:53:51;;;;;;;8.23;6.10;;;7.40;99.90;;;;;;4986112;28;20208;-69
2023/02/23 05:56:20;;;;;;;9.93;7.05;;;7.40;99.90;;;;;;4976999;28;20211;-69
2023/02/23 05:58:47;;;;;;;11.73;8.98;;;7.40;99.90;;;;;;4991108;28;20390;-69
2023/02/23 06:01:14;;;;;;;16.02;6.38;;;7.30;99.90;;;;;;4986956;28;20243;-68
2023/02/23 06:03:40;;;;;;;11.27;6.32;;;7.40;99.90;;;;;;4991115;28;20215;-68
2023/02/23 06:06:07;;;;;;;6.30;4.50;;;7.40;99.90;;;;;;4992868;28;20208;-68
2023/02/23 06:08:34;;;;;;;7.20;5.28;;;7.40;99.90;;;;;;4983620;28;20209;-68
2023/02/23 06:11:02;;;;;;;5.50;5.03;;;7.40;99.90;;;;;;4991747;28;20224;-70
2023/02/23 06:13:30;;;;;;;15.77;8.52;;;7.40;99.90;;;;;;4986233;28;20200;-70
2023/02/23 06:15:58;;;;;;;25.45;8.07;;;7.40;99.90;;;;;;4992682;28;20239;-67
2023/02/23 06:18:25;;;;;;;16.00;7.28;;;7.40;99.90;;;;;;4992348;28;20203;-68
2023/02/23 06:20:51;;;;;;;12.65;5.35;;;7.40;99.90;;;;;;4991284;28;20228;-70
2023/02/23 06:23:18;;;;;;;7.93;5.00;;;7.40;99.90;;;;;;4991453;28;20207;-68
2023/02/23 06:25:46;;;;;;;8.68;4.97;;;7.40;99.90;;;;;;4990028;28;20641;-68
2023/02/23 06:28:15;;;;;;;19.85;8.38;;;7.40;99.90;;;;;;4988185;28;20711;-67
2023/02/23 06:30:42;;;;;;;11.15;7.55;;;7.40;99.90;;;;;;4983216;28;20224;-67
2023/02/23 06:33:08;;;;;;;7.75;5.47;;;7.40;99.90;;;;;;4991882;28;20247;-67
2023/02/23 06:35:35;;;;;;;9.20;7.18;;;7.40;99.90;;;;;;4987853;28;20224;-68
2023/02/23 06:38:03;;;;;;;13.10;5.40;;;7.40;99.90;;;;;;4979992;28;20654;-68
2023/02/23 06:40:30;;;;;;;11.05;5.60;;;7.40;99.90;;;;;;4982758;28;20204;-68
2023/02/23 06:42:56;;;;;;;12.57;8.48;;;7.40;99.90;;;;;;4990277;28;20207;-69
2023/02/23 06:45:24;;;;;;;24.20;15.95;;;7.50;99.90;;;;;;4986652;28;20208;-67
2023/02/23 06:47:52;;;;;;;11.82;6.57;;;7.50;99.90;;;;;;4991923;28;20215;-67
2023/02/23 06:50:19;;;;;;;12.38;6.30;;;7.50;99.90;;;;;;4988765;28;20208;-67
2023/02/23 06:52:46;;;;;;;16.80;11.18;;;7.50;99.90;;;;;;4972222;28;20211;-67
2023/02/23 06:55:13;;;;;;;10.15;7.65;;;7.50;99.90;;;;;;4973924;28;20235;-67
2023/02/23 06:57:40;;;;;;;10.35;7.95;;;7.50;99.90;;;;;;4984033;28;20200;-66
2023/02/23 07:00:08;;;;;;;14.55;8.55;;;7.60;99.90;;;;;;4989671;28;20866;-67
2023/02/23 07:02:36;;;;;;;14.60;9.32;;;7.60;99.90;;;;;;4984384;28;20638;-67
2023/02/23 07:05:03;;;;;;;13.73;7.40;;;7.60;99.90;;;;;;4981657;28;20207;-67
2023/02/23 07:07:31;;;;;;;7.65;6.90;;;7.60;99.90;;;;;;4990262;28;20208;-67
2023/02/23 07:09:57;;;;;;;21.65;10.52;;;7.60;99.90;;;;;;4990958;28;20471;-67
2023/02/23 07:12:24;;;;;;;20.80;9.60;;;7.60;99.90;;;;;;4991799;28;20231;-67
2023/02/23 07:14:51;;;;;;;14.05;7.82;;;7.60;99.90;;;;;;4991585;28;20870;-67
2023/02/23 07:17:18;;;;;;;13.50;8.70;;;7.60;99.90;;;;;;4989355;28;20200;-67
2023/02/23 07:19:46;;;;;;;11.68;7.80;;;7.70;99.90;;;;;;4978891;28;20569;-67
2023/02/23 07:22:12;;;;;;;15.55;8.65;;;7.70;99.90;;;;;;4978316;28;20235;-67
2023/02/23 07:24:39;;;;;;;11.38;7.50;;;7.70;99.90;;;;;;4987443;28;20207;-69
2023/02/23 07:27:06;;;;;;;12.88;9.38;;;7.70;99.90;;;;;;4983188;28;20207;-67
2023/02/23 07:29:32;;;;;;;12.25;8.70;;;7.70;99.90;;;;;;4982798;28;20215;-66
2023/02/23 07:31:59;;;;;;;21.45;9.07;;;7.80;99.90;;;;;;4989740;28;20220;-66
2023/02/23 07:34:26;;;;;;;13.30;7.40;;;7.80;99.90;;;;;;4986555;28;20695;-68
2023/02/23 07:36:54;;;;;;;8.40;7.35;;;7.80;99.90;;;;;;4984869;28;20578;-68
2023/02/23 07:39:21;;;;;;;9.68;6.97;;;7.80;99.90;;;;;;4987755;28;20207;-67
2023/02/23 07:41:47;;;;;;;15.63;10.00;;;7.80;99.90;;;;;;4989142;28;20660;-67
2023/02/23 07:44:14;;;;;;;24.15;11.57;;;7.80;99.90;;;;;;4986966;28;20204;-67
2023/02/23 07:46:41;;;;;;;21.38;8.45;;;7.80;99.90;;;;;;4980319;28;20204;-67
2023/02/23 07:49:08;;;;;;;25.30;10.82;;;7.80;99.90;;;;;;4984964;28;20281;-66
2023/02/23 07:51:35;;;;;;;13.85;8.95;;;7.90;99.90;;;;;;4990595;28;20631;-66
2023/02/23 07:54:04;;;;;;;15.82;9.02;;;7.90;99.90;;;;;;4987386;28;20204;-67
2023/02/23 07:56:31;;;;;;;17.58;9.02;;;8.00;99.90;;;;;;4986689;28;20232;-66
2023/02/23 07:58:58;;;;;;;17.58;9.23;;;8.00;99.90;;;;;;4983952;28;20580;-66
2023/02/23 08:01:24;;;;;;;21.33;11.45;;;8.00;99.90;;;;;;4980933;28;20232;-66
2023/02/23 08:03:51;;;;;;;12.73;8.52;;;8.00;99.90;;;;;;4984274;28;20204;-66
2023/02/23 08:06:19;;;;;;;16.15;8.45;;;8.00;99.90;;;;;;4986077;28;20200;-66
2023/02/23 08:08:45;;;;;;;28.17;12.32;;;8.00;99.90;;;;;;4979770;28;20216;-66
2023/02/23 08:11:14;;;;;;;17.35;10.82;;;8.00;99.90;;;;;;4978181;28;20223;-66
2023/02/23 08:13:41;;;;;;;15.18;9.32;;;8.00;99.90;;;;;;4976520;28;20554;-67
2023/02/23 08:16:08;;;;;;;20.38;8.15;;;8.00;99.90;;;;;;4987705;28;20255;-67
2023/02/23 08:18:35;;;;;;;18.00;10.25;;;8.00;99.90;;;;;;4984009;28;20208;-67
2023/02/23 08:21:03;;;;;;;26.88;11.75;;;8.00;99.90;;;;;;4985663;28;20547;-67
2023/02/23 08:23:31;;;;;;;18.10;10.05;;;8.00;99.90;;;;;;4988434;28;20219;-67
2023/02/23 08:25:59;;;;;;;12.15;9.15;;;8.10;99.90;;;;;;4981523;28;20200;-67
2023/02/23 08:28:28;;;;;;;18.35;9.73;;;8.10;99.90;;;;;;4975918;28;20250;-67
2023/02/23 08:30:55;;;;;;;14.48;8.80;;;8.10;99.90;;;;;;4987060;28;20235;-67
2023/02/23 08:33:22;;;;;;;20.65;10.10;;;8.20;99.90;;;;;;4982104;28;20680;-67
2023/02/23 08:35:49;;;;;;;21.92;9.35;;;8.20;99.90;;;;;;4979007;28;20637;-66
2023/02/23 08:38:17;;;;;;;13.32;9.23;;;8.20;99.90;;;;;;4987754;28;20196;-65
2023/02/23 08:40:43;;;;;;;25.50;11.45;;;8.30;99.90;;;;;;4993776;28;20318;-67
2023/02/23 08:43:10;;;;;;;25.42;9.77;;;8.30;99.90;;;;;;4990042;28;20280;-66
2023/02/23 08:45:38;;;;;;;15.30;9.82;;;8.40;99.90;;;;;;4986180;28;20200;-67
2023/02/23 08:48:05;;;;;;;16.30;10.27;;;8.30;99.90;;;;;;4995859;28;20202;-67
2023/02/23 08:50:32;;;;;;;16.90;10.70;;;8.30;99.90;;;;;;4979661;28;20220;-67
2023/02/23 08:52:59;;;;;;;18.48;9.25;;;8.40;99.90;;;;;;4995752;28;20212;-67
2023/02/23 08:55:26;;;;;;;13.93;9.98;;;8.40;99.90;;;;;;4993646;28;20303;-67
2023/02/23 08:57:52;;;;;;;17.35;9.68;;;8.40;99.90;;;;;;4989590;28;20211;-68
2023/02/23 09:00:20;;;;;;;20.58;9.07;;;8.40;99.90;;;;;;4982519;28;20212;-67
2023/02/23 09:02:48;;;;;;;14.20;8.68;;;8.40;99.90;;;;;;4983854;28;20204;-68
2023/02/23 09:05:15;;;;;;;21.60;9.07;;;8.40;99.90;;;;;;4992150;28;20286;-68
2023/02/23 09:07:44;;;;;;;27.65;9.35;;;8.40;99.90;;;;;;4980724;28;20204;-67
2023/02/23 09:10:13;;;;;;;15.77;9.75;;;8.40;99.90;;;;;;4978424;28;20227;-67
2023/02/23 09:12:39;;;;;;;22.05;11.45;;;8.40;99.90;;;;;;4993982;28;20226;-69
2023/02/23 09:15:08;;;;;;;23.27;11.02;;;8.50;99.90;;;;;;4993704;28;20212;-68
2023/02/23 09:17:34;;;;;;;22.05;7.60;;;8.50;99.90;;;;;;4992281;28;20207;-68
2023/02/23 09:20:04;;;;;;;17.10;9.52;;;8.50;99.90;;;;;;4987407;28;20204;-68
2023/02/23 09:22:31;;;;;;;11.07;8.27;;;8.50;99.90;;;;;;4986347;28;20223;-68
2023/02/23 09:24:58;;;;;;;13.82;8.88;;;8.60;99.90;;;;;;4990649;28;20215;-68
2023/02/23 09:27:24;;;;;;;13.50;6.15;;;8.60;99.90;;;;;;4987536;28;20606;-68
2023/02/23 09:29:51;;;;;;;16.00;9.05;;;8.60;99.90;;;;;;4984745;28;20250;-68
2023/02/23 09:32:18;;;;;;;18.42;8.82;;;8.60;99.90;;;;;;4986761;28;20564;-68
2023/02/23 09:34:47;;;;;;;11.88;7.18;;;8.70;99.90;;;;;;4985816;28;20211;-68
2023/02/23 09:37:15;;;;;;;19.48;10.70;;;8.70;99.90;;;;;;4976686;28;20218;-69
2023/02/23 09:39:44;;;;;;;14.80;9.70;;;8.70;99.90;;;;;;4991017;28;20235;-69
2023/02/23 09:42:19;;;;;;;11.70;10.45;;;8.80;99.90;;;;;;4991612;28;20302;-68
2023/02/23 09:45:07;;;;;;;19.27;10.60;;;8.80;99.90;;;;;;4987231;28;20226;-68
2023/02/23 09:47:45;;;;;;;15.85;10.07;;;8.90;99.90;;;;;;4987486;28;20204;-68
2023/02/23 09:50:17;;;;;;;17.30;9.60;;;8.90;99.90;;;;;;4974018;28;20215;-68
2023/02/23 09:52:51;;;;;;;22.42;10.00;;;8.90;99.90;;;;;;4983215;28;20212;-68
2023/02/23 09:55:18;;;;;;;21.92;9.57;;;8.90;99.90;;;;;;4989186;28;20759;-68
2023/02/23 09:57:48;;;;;;;19.52;7.57;;;9.00;99.90;;;;;;4988562;28;20232;-68
2023/02/23 10:00:19;;;;;;;20.85;9.90;;;9.00;99.90;;;;;;4988602;28;20203;-68
2023/02/23 10:03:06;;;;;;;12.60;10.77;;;9.00;99.90;;;;;;4991887;28;20219;-68
2023/02/23 10:05:37;;;;;;;9.60;8.27;;;9.00;99.90;;;;;;4983339;28;20200;-68
2023/02/23 10:08:12;;;;;;;12.05;6.75;;;9.00;99.90;;;;;;4977606;28;20207;-68
2023/02/23 10:10:47;;;;;;;12.43;7.85;;;9.00;99.90;;;;;;4987390;28;20581;-69
2023/02/23 10:13:22;;;;;;;9.73;7.53;;;9.00;99.90;;;;;;4982486;28;20207;-67
2023/02/23 10:15:56;;;;;;;10.48;7.82;;;9.10;99.90;;;;;;4992873;28;20669;-69
2023/02/23 10:18:36;;;;;;;8.88;7.10;;;9.10;99.90;;;;;;4993068;28;20211;-68
2023/02/23 10:21:06;;;;;;;9.82;6.13;;;9.10;99.90;;;;;;4990843;28;20558;-69
2023/02/23 10:23:43;;;;;;;10.48;5.72;;;9.10;99.90;;;;;;4986616;28;20228;-68
2023/02/23 10:26:18;;;;;;;9.70;7.00;;;9.10;99.90;;;;;;4991576;28;20671;-68
2023/02/23 10:28:45;;;;;;;14.60;9.25;;;9.10;99.90;;;;;;4981631;28;20207;-68
2023/02/23 10:31:25;;;;;;;20.15;15.68;;;9.10;99.90;;;;;;4991524;28;20243;-68
2023/02/23 10:33:55;;;;;;;36.97;21.83;;;9.10;99.90;;;;;;4985870;28;20214;-67
2023/02/23 10:36:34;;;;;;;49.67;26.38;;;9.10;99.90;;;;;;4978089;28;20614;-69
2023/02/23 10:39:05;;;;;;;47.03;25.60;;;9.10;99.90;;;;;;4982879;28;20220;-69
2023/02/23 10:41:32;;;;;;;36.55;27.30;;;9.20;99.90;;;;;;4986888;28;20601;-68
2023/02/23 10:43:59;;;;;;;49.13;25.58;;;9.20;99.90;;;;;;4983928;28;20224;-68
2023/02/23 10:46:34;;;;;;;28.20;18.67;;;9.10;99.90;;;;;;4984974;28;20632;-68
2023/02/23 10:49:01;;;;;;;37.10;18.38;;;9.10;99.90;;;;;;4987237;28;20227;-69
2023/02/23 10:51:33;;;;;;;29.35;17.25;;;9.10;99.90;;;;;;4989284;28;20227;-68
2023/02/23 10:54:50;;;;;;;15.43;11.43;;;9.10;99.90;;;;;;4986886;28;20211;-68
2023/02/23 10:57:24;;;;;;;16.33;13.00;;;9.10;99.90;;;;;;4934678;28;20268;-67
2023/02/23 11:00:29;;;;;;;22.52;13.25;;;9.10;99.90;;;;;;4985591;28;20210;-68
2023/02/23 11:02:58;;;;;;;22.73;14.48;;;9.10;99.90;;;;;;4989455;28;20211;-68
2023/02/23 11:05:32;;;;;;;17.40;9.80;;;9.10;99.90;;;;;;4985319;28;20208;-68
2023/02/23 11:08:23;;;;;;;12.68;7.80;;;9.10;99.90;;;;;;4986156;28;20206;-68
2023/02/23 11:11:08;;;;;;;10.20;5.72;;;9.00;99.90;;;;;;4984140;28;20242;-68
2023/02/23 11:13:39;;;;;;;9.30;4.97;;;9.00;99.90;;;;;;4993737;28;20234;-68
2023/02/23 11:16:11;;;;;;;7.03;5.07;;;9.00;99.90;;;;;;4995148;28;20227;-68
2023/02/23 11:18:40;;;;;;;6.05;3.95;;;9.00;99.90;;;;;;4976120;28;20207;-68
2023/02/23 11:21:12;;;;;;;6.57;4.75;;;9.10;99.90;;;;;;4990470;28;20223;-68
2023/02/23 11:23:41;;;;;;;6.65;6.15;;;9.10;99.90;;;;;;4983434;28;20574;-68
2023/02/23 11:26:22;;;;;;;15.30;8.68;;;9.30;99.90;;;;;;4985267;28;20559;-66
2023/02/23 11:28:54;;;;;;;12.38;7.03;;;9.40;99.90;;;;;;4991842;28;20203;-69
2023/02/23 11:31:23;;;;;;;18.20;6.35;;;9.40;99.90;;;;;;4986530;28;20216;-69
2023/02/23 11:33:52;;;;;;;7.85;6.38;;;9.40;99.90;;;;;;4983786;28;20215;-69
2023/02/23 11:36:27;;;;;;;7.50;6.13;;;9.40;99.90;;;;;;4995022;23;20232;-67
2023/02/23 11:39:03;;;;;;;16.63;9.38;;;9.30;99.90;;;;;;4961501;28;20211;-68
2023/02/23 11:41:31;;;;;;;9.70;7.75;;;9.30;99.90;;;;;;4970362;28;20213;-67
2023/02/23 11:44:01;;;;;;;19.23;11.18;;;9.30;99.90;;;;;;4969378;28;20594;-68
2023/02/23 11:46:30;;;;;;;7.97;7.28;;;9.30;99.90;;;;;;4962350;28;20243;-67
2023/02/23 11:48:59;;;;;;;12.43;6.85;;;9.20;99.90;;;;;;4963029;28;20209;-68
2023/02/23 11:51:29;;;;;;;15.95;7.70;;;9.20;99.90;;;;;;4951450;28;20209;-67
2023/02/23 11:53:56;;;;;;;8.65;6.50;;;9.20;99.90;;;;;;4960573;28;20204;-68
2023/02/23 11:56:25;;;;;;;15.32;9.45;;;9.10;99.90;;;;;;4962593;28;20232;-68
2023/02/23 11:58:54;;;;;;;13.15;7.38;;;9.10;99.90;;;;;;4972571;28;20208;-69
2023/02/23 12:01:34;;;;;;;14.73;8.55;;;9.10;99.90;;;;;;4957460;28;20721;-67
2023/02/23 12:04:02;;;;;;;17.25;9.18;;;9.10;99.90;;;;;;4952668;29;20205;-68
2023/02/23 12:06:32;;;;;;;23.70;11.75;;;9.00;99.90;;;;;;4960047;28;20315;-67
2023/02/23 12:09:12;;;;;;;26.20;11.00;;;9.00;99.90;;;;;;4968506;28;20862;-68
2023/02/23 12:11:44;;;;;;;20.70;10.45;;;9.00;99.90;;;;;;4971813;28;20213;-67
2023/02/23 12:14:17;;;;;;;28.95;12.55;;;8.90;99.90;;;;;;4972027;28;20204;-68
2023/02/23 12:16:49;;;;;;;17.08;10.25;;;8.90;99.90;;;;;;4961532;28;20655;-68
2023/02/23 12:19:25;;;;;;;31.75;10.15;;;8.90;99.90;;;;;;4969993;28;20271;-68
2023/02/23 12:22:00;;;;;;;24.75;10.80;;;9.00;99.90;;;;;;4963228;28;20267;-68
2023/02/23 12:24:39;;;;;;;33.55;10.85;;;9.10;99.90;;;;;;4973245;28;20813;-68
2023/02/23 12:27:12;;;;;;;26.27;11.90;;;9.10;99.90;;;;;;4972024;28;20693;-68
2023/02/23 12:29:44;;;;;;;29.80;11.10;;;9.10;99.90;;;;;;4962874;28;20661;-68
2023/02/23 12:32:16;;;;;;;27.83;10.38;;;9.20;99.90;;;;;;4966832;28;20211;-68
2023/02/23 12:34:47;;;;;;;21.80;9.82;;;9.20;99.90;;;;;;4966477;28;20220;-68
2023/02/23 12:37:28;;;;;;;29.58;11.45;;;9.20;99.90;;;;;;4969876;28;20232;-69
2023/02/23 12:39:58;;;;;;;32.50;12.77;;;9.20;99.90;;;;;;4970289;28;20213;-68
2023/02/23 12:42:35;;;;;;;27.27;9.63;;;9.20;99.90;;;;;;4966054;28;20551;-68
2023/02/23 12:45:05;;;;;;;21.77;9.63;;;9.30;99.90;;;;;;4968818;28;20211;-68
2023/02/23 12:47:37;;;;;;;32.35;11.75;;;9.30;99.90;;;;;;4972484;28;20674;-68
2023/02/23 12:50:11;;;;;;;18.17;11.43;;;9.20;99.90;;;;;;4975670;28;20209;-67
2023/02/23 12:52:44;;;;;;;18.48;9.57;;;9.20;99.90;;;;;;4970251;28;20208;-70
2023/02/23 12:55:13;;;;;;;20.52;9.60;;;9.20;99.90;;;;;;4969494;28;20243;-67
2023/02/23 12:57:49;;;;;;;28.55;9.55;;;9.20;99.90;;;;;;4961023;28;20225;-68
2023/02/23 13:00:40;;;;;;;30.77;12.05;;;9.20;99.90;;;;;;4973936;28;20530;-68
2023/02/23 13:03:31;;;;;;;26.23;13.23;;;9.10;99.90;;;;;;4966365;28;20529;-68
2023/02/23 13:06:05;;;;;;;16.02;7.78;;;9.10;99.90;;;;;;4971992;28;20237;-69
2023/02/23 13:08:46;;;;;;;20.38;9.23;;;9.00;99.90;;;;;;4955134;29;20315;-68
2023/02/23 13:11:19;;;;;;;22.83;11.27;;;9.00;99.90;;;;;;4974711;28;20211;-68
2023/02/23 13:13:54;;;;;;;20.92;7.38;;;8.90;99.90;;;;;;4966996;28;20208;-68
2023/02/23 13:16:28;;;;;;;39.85;13.73;;;8.90;99.90;;;;;;4978909;28;20695;-67
2023/02/23 13:19:08;;;;;;;14.95;10.82;;;8.80;99.90;;;;;;4970612;28;20331;-63
2023/02/23 13:21:40;;;;;;;24.95;12.55;;;8.80;99.90;;;;;;4962120;28;20205;-68
2023/02/23 13:24:12;;;;;;;34.03;12.90;;;8.80;99.90;;;;;;4972166;28;20225;-68
2023/02/23 13:26:47;;;;;;;24.63;9.65;;;8.70;99.90;;;;;;4962838;28;20288;-67
2023/02/23 13:29:30;;;;;;;30.42;9.18;;;8.70;99.90;;;;;;4957768;28;20239;-67
2023/02/23 13:31:58;;;;;;;26.52;11.38;;;8.70;99.90;;;;;;4964789;28;20291;-68
2023/02/23 13:34:30;;;;;;;15.45;6.20;;;8.70;99.90;;;;;;4962775;28;20221;-68
2023/02/23 13:36:58;;;;;;;36.97;11.15;;;8.70;99.90;;;;;;4967821;28;20719;-69
2023/02/23 13:39:46;;;;;;;35.22;11.23;;;8.70;99.90;;;;;;4974429;28;20204;-69
2023/02/23 13:42:32;;;;;;;28.02;13.77;;;8.60;99.90;;;;;;4962437;28;20846;-68
2023/02/23 13:45:13;;;;;;;24.20;11.25;;;8.60;99.90;;;;;;4966576;28;20221;-68
2023/02/23 13:47:47;;;;;;;21.55;8.48;;;8.50;99.90;;;;;;4966668;28;20379;-68
2023/02/23 13:50:23;;;;;;;31.75;9.52;;;8.50;99.90;;;;;;4968977;28;20219;-69
2023/02/23 13:52:54;;;;;;;13.85;6.72;;;8.60;99.90;;;;;;4960827;28;20205;-68
2023/02/23 13:55:50;;;;;;;34.45;11.60;;;8.60;99.90;;;;;;4967279;28;20209;-69
2023/02/23 13:58:21;;;;;;;31.00;10.82;;;8.60;99.90;;;;;;4960291;28;20320;-68
2023/02/23 14:01:03;;;;;;;26.35;11.48;;;8.70;99.90;;;;;;4967101;28;20224;-69
2023/02/23 14:03:33;;;;;;;31.02;9.75;;;8.70;99.90;;;;;;4964979;28;20523;-67
2023/02/23 14:06:01;;;;;;;19.15;6.93;;;8.70;99.90;;;;;;4967098;28;20759;-68
2023/02/23 14:08:33;;;;;;;11.40;6.95;;;8.70;99.90;;;;;;4966966;28;20231;-68
2023/02/23 14:11:01;;;;;;;25.13;10.73;;;8.70;99.90;;;;;;4974433;28;20216;-67
2023/02/23 14:13:31;;;;;;;18.15;7.50;;;8.70;99.90;;;;;;4963588;28;20649;-66
2023/02/23 14:16:14;;;;;;;20.75;11.05;;;8.70;99.90;;;;;;4970958;28;20229;-67
2023/02/23 14:18:54;;;;;;;21.05;10.23;;;8.70;99.90;;;;;;4964088;28;20631;-66
2023/02/23 14:21:29;;;;;;;22.90;8.45;;;8.70;99.90;;;;;;4952715;28;20205;-67
2023/02/23 14:24:05;;;;;;;20.23;8.57;;;8.70;99.90;;;;;;4969568;28;20219;-68
2023/02/23 14:27:05;;;;;;;28.02;9.80;;;8.70;99.90;;;;;;4974135;28;20720;-69
2023/02/23 14:29:39;;;;;;;18.05;9.80;;;8.70;99.90;;;;;;4971774;28;20672;-69
2023/02/23 14:32:27;;;;;;;22.88;10.50;;;8.70;99.90;;;;;;4973599;28;20665;-66
2023/02/23 14:34:55;;;;;;;21.17;10.43;;;8.70;99.90;;;;;;4973305;28;20215;-66
2023/02/23 14:37:30;;;;;;;31.38;14.85;;;8.70;99.90;;;;;;4976485;28;20255;-67
2023/02/23 14:40:04;;;;;;;23.65;9.15;;;8.70;99.90;;;;;;4975730;28;20215;-70
2023/02/23 14:42:31;;;;;;;20.05;13.13;;;8.70;99.90;;;;;;4976257;28;20211;-67
2023/02/23 14:45:05;;;;;;;20.45;10.35;;;8.80;99.90;;;;;;4971122;28;20299;-68
2023/02/23 14:47:42;;;;;;;23.40;8.90;;;8.70;99.90;;;;;;4975517;28;20569;-67
2023/02/23 14:50:17;;;;;;;32.22;10.70;;;8.70;99.90;;;;;;4970514;28;20216;-68
2023/02/23 14:52:46;;;;;;;36.78;10.40;;;8.70;99.90;;;;;;4962175;28;20286;-67
2023/02/23 14:55:21;;;;;;;38.97;12.45;;;8.70;99.90;;;;;;4971904;28;20216;-69
2023/02/23 14:57:49;;;;;;;32.92;11.25;;;8.70;99.90;;;;;;4974322;28;20227;-67
2023/02/23 15:00:21;;;;;;;27.90;11.05;;;8.70;99.90;;;;;;4969290;28;20282;-69
2023/02/23 15:02:57;;;;;;;23.58;7.72;;;8.60;99.90;;;;;;4967356;28;20233;-67
2023/02/23 15:05:28;;;;;;;19.40;8.07;;;8.60;99.90;;;;;;4967016;28;20236;-68
2023/02/23 15:07:59;;;;;;;19.98;7.75;;;8.70;99.90;;;;;;4976247;28;20583;-67
2023/02/23 15:10:30;;;;;;;23.83;9.25;;;8.70;99.90;;;;;;4971608;28;20213;-67
2023/02/23 15:12:58;;;;;;;25.98;11.20;;;8.70;99.90;;;;;;4971905;28;20217;-67
2023/02/23 15:15:26;;;;;;;19.58;8.77;;;8.60;99.90;;;;;;4970032;28;20232;-67
2023/02/23 15:17:56;;;;;;;20.17;10.32;;;8.60;99.90;;;;;;4971228;28;20223;-67
2023/02/23 15:20:31;;;;;;;27.08;12.45;;;8.60;99.90;;;;;;4969548;28;20563;-67
2023/02/23 15:23:02;;;;;;;12.90;8.63;;;8.60;99.90;;;;;;4966087;28;20697;-69
2023/02/23 15:25:35;;;;;;;38.05;12.02;;;8.60;99.90;;;;;;4966534;28;20283;-67
2023/02/23 15:28:12;;;;;;;41.33;12.95;;;8.50;99.90;;;;;;4967110;28;20295;-68
2023/02/23 15:30:45;;;;;;;20.77;10.05;;;8.50;99.90;;;;;;4974530;28;20220;-69
2023/02/23 15:33:14;;;;;;;23.35;10.32;;;8.50;99.90;;;;;;4974294;28;20292;-68
2023/02/23 15:35:46;;;;;;;14.35;7.22;;;8.50;99.90;;;;;;4965135;28;20244;-67
2023/02/23 15:38:20;;;;;;;11.38;8.10;;;8.50;99.90;;;;;;4969440;28;20220;-69
2023/02/23 15:40:54;;;;;;;37.72;10.25;;;8.50;99.90;;;;;;4960755;28;20232;-68
2023/02/23 15:43:21;;;;;;;41.20;12.35;;;8.50;99.90;;;;;;4963520;28;20741;-67
2023/02/23 15:45:51;;;;;;;33.85;11.93;;;8.50;99.90;;;;;;4969738;28;20318;-66
2023/02/23 15:48:22;;;;;;;23.15;10.23;;;8.50;99.90;;;;;;4969956;28;20255;-67
2023/02/23 15:50:52;;;;;;;20.75;11.27;;;8.50;99.90;;;;;;4962736;28;20727;-67
2023/02/23 15:53:28;;;;;;;22.55;7.25;;;8.50;99.90;;;;;;4957113;28;20241;-67
2023/02/23 15:56:14;;;;;;;30.65;13.45;;;8.50;99.90;;;;;;5121962;27;20579;-69
2023/02/23 15:58:48;;;;;;;22.60;9.50;;;8.50;99.90;;;;;;5094035;28;20207;-68
2023/02/23 16:01:23;;;;;;;21.17;7.78;;;8.50;99.90;;;;;;5106365;28;20242;-68
2023/02/23 16:03:59;;;;;;;17.00;9.60;;;8.50;99.90;;;;;;5096427;28;20290;-69
2023/02/23 16:06:31;;;;;;;17.35;10.18;;;8.50;99.90;;;;;;5104822;28;20250;-68
2023/02/23 16:09:04;;;;;;;19.88;7.78;;;8.50;99.90;;;;;;5095214;28;20208;-67
2023/02/23 16:11:36;;;;;;;20.63;8.48;;;8.50;99.90;;;;;;5089751;28;20296;-68
2023/02/23 16:14:05;;;;;;;16.23;10.73;;;8.50;99.90;;;;;;5089318;28;20290;-70
2023/02/23 16:16:34;;;;;;;12.68;7.30;;;8.50;99.90;;;;;;5092459;28;20224;-68
2023/02/23 16:19:03;;;;;;;21.33;7.35;;;8.50;99.90;;;;;;5095329;28;20250;-69
2023/02/23 16:21:31;;;;;;;28.10;8.68;;;8.50;99.90;;;;;;5096364;28;20228;-68
2023/02/23 16:24:01;;;;;;;22.60;11.25;;;8.50;99.90;;;;;;5097771;28;20210;-69
2023/02/23 16:26:34;;;;;;;23.52;10.50;;;8.50;99.90;;;;;;5098287;28;20303;-69
2023/02/23 16:29:04;;;;;;;25.80;9.32;;;8.50;99.90;;;;;;5092692;28;20232;-68
2023/02/23 16:31:42;;;;;;;16.30;9.43;;;8.50;99.90;;;;;;5100331;28;20287;-69
2023/02/23 16:34:20;;;;;;;27.35;9.70;;;8.50;99.90;;;;;;5104694;28;20584;-70
2023/02/23 16:36:50;;;;;;;31.08;11.23;;;8.40;99.90;;;;;;5102153;28;20718;-69
2023/02/23 16:39:17;;;;;;;21.50;9.35;;;8.40;99.90;;;;;;5105316;28;20673;-68
2023/02/23 16:41:46;;;;;;;16.05;7.90;;;8.40;99.90;;;;;;5098364;28;20315;-68
2023/02/23 16:44:19;;;;;;;13.10;7.78;;;8.40;99.90;;;;;;5099343;28;20310;-68
2023/02/23 16:47:16;;;;;;;15.80;6.03;;;8.40;99.90;;;;;;5104705;28;20227;-68
2023/02/23 16:49:43;;;;;;;27.08;6.35;;;8.40;99.90;;;;;;5097202;28;20556;-69
2023/02/23 16:52:17;;;;;;;17.63;6.05;;;8.30;99.90;;;;;;5107953;28;20274;-68
2023/02/23 16:54:47;;;;;;;30.50;9.43;;;8.30;99.90;;;;;;5088043;28;20310;-68
2023/02/23 16:57:21;;;;;;;8.63;5.03;;;8.30;99.90;;;;;;5103783;28;20243;-68
2023/02/23 16:59:50;;;;;;;13.13;6.40;;;8.30;99.90;;;;;;5096717;28;22398;-67
2023/02/23 17:02:18;;;;;;;7.53;6.05;;;8.30;99.90;;;;;;5104740;28;20230;-68
2023/02/23 17:04:47;;;;;;;13.15;6.75;;;8.40;99.90;;;;;;5106408;28;20206;-68
2023/02/23 17:07:15;;;;;;;14.38;7.85;;;8.30;99.90;;;;;;5092810;28;20247;-68
2023/02/23 17:09:41;;;;;;;4.80;2.47;;;8.30;99.90;;;;;;5093312;28;20200;-69
2023/02/23 17:12:11;;;;;;;15.07;6.78;;;8.30;99.90;;;;;;5096621;28;20223;-68
2023/02/23 17:14:37;;;;;;;10.70;5.22;;;8.30;99.90;;;;;;5098387;28;20228;-68
2023/02/23 17:17:06;;;;;;;8.23;7.15;;;8.30;99.90;;;;;;5092315;28;20228;-68
2023/02/23 17:19:32;;;;;;;10.20;3.92;;;8.30;99.90;;;;;;5078819;28;20209;-68
2023/02/23 17:21:59;;;;;;;9.88;4.70;;;8.30;99.90;;;;;;5087055;28;20227;-68
2023/02/23 17:24:26;;;;;;;6.40;2.53;;;8.30;99.90;;;;;;5085271;28;20204;-68
2023/02/23 17:26:54;;;;;;;10.32;5.85;;;8.30;99.90;;;;;;5092757;28;20224;-68
2023/02/23 17:29:21;;;;;;;7.85;4.03;;;8.30;99.90;;;;;;5086515;28;20209;-68
2023/02/23 17:31:48;;;;;;;4.78;2.95;;;8.20;99.90;;;;;;5082406;28;20220;-69
2023/02/23 17:34:17;;;;;;;9.95;5.03;;;8.20;99.90;;;;;;5083393;28;20569;-68
2023/02/23 17:36:44;;;;;;;8.40;3.17;;;8.20;99.90;;;;;;5083193;28;20282;-67
2023/02/23 17:39:12;;;;;;;2.92;2.72;;;8.20;99.90;;;;;;5085507;22;20233;-67
2023/02/23 17:41:39;;;;;;;7.03;4.50;;;8.20;99.90;;;;;;5069113;28;20208;-67
2023/02/23 17:44:06;;;;;;;1.05;1.05;;;8.10;99.90;;;;;;5064743;28;20227;-68
2023/02/23 17:46:33;;;;;;;2.60;2.47;;;8.10;99.90;;;;;;5062538;28;20555;-72
2023/02/23 17:49:00;;;;;;;10.75;3.35;;;8.10;99.90;;;;;;5049333;28;20238;-70
2023/02/23 17:51:28;;;;;;;1.85;1.75;;;8.10;99.90;;;;;;5040734;28;20202;-68
2023/02/23 17:53:55;;;;;;;10.05;3.08;;;8.10;99.90;;;;;;5043516;28;20217;-69
2023/02/23 17:56:22;;;;;;;3.38;3.03;;;8.00;99.90;;;;;;5043549;28;20233;-71
2023/02/23 17:58:50;;;;;;;4.95;2.97;;;8.00;99.90;;;;;;5042440;28;20233;-69
2023/02/23 18:01:18;;;;;;;2.55;2.45;;;7.90;99.90;;;;;;5038297;28;20638;-68
2023/02/23 18:03:46;;;;;;;7.75;5.35;;;7.70;99.90;;;;;;5042425;28;20224;-69
2023/02/23 18:06:14;;;;;;;7.68;3.75;;;7.70;99.90;;;;;;5041408;28;20304;-69